< < Back
Terminal Aerodrome Forecast


Current Version              Previous Versions:   1  2  3  4  5  6  7  8  9  

Terminal Aerodrome Forecast

474
FTUS42 KJAX 191700
TAFSSI
TAF
KSSI 191721Z 1918/2018 03011KT 5SM -DZ BR OVC003
      TEMPO 1918/1921 2SM -RA BR
     FM192100 36009KT 5SM -DZ BR OVC003
      TEMPO 1921/2001 2SM -RA BR
     FM200300 36012G20KT P6SM OVC004
     FM201000 36014G22KT P6SM OVC006
     FM201500 36015G23KT P6SM BKN010=

Latest METAR

668
SAUS70 KWBC 192200 RRL
MTRSSI
METAR KSSI 192153Z AUTO 03013G20KT 4SM -RA BR OVC005 17/16 A2992 RMK AO2
LTG DSNT E CIG 004V010 SLP133 P0000 T01670161 $


USA.gov is the U.S. government's official web portal to all federal, state and local government web resources and services.